Time;durP1;ratioP1;P1;durP2;ratioP2;P2;SDS_P1;SDS_P2;PMS_P1;PMS_P2;Temp;Humidity;BMP_temperature;BMP_pressure;BME280_temperature;BME280_humidity;BME280_pressure;Samples;Min_cycle;Max_cycle;Signal;HPM_P1;HPM_P2
2022/06/12 00:02:16;;;;;;;9.95;5.22;;;;;;;14.29;76.13;102106.19;4980884;28;20070;-94
2022/06/12 00:04:41;;;;;;;12.40;5.50;;;;;;;14.25;76.70;102112.63;4974518;28;20046;-93
2022/06/12 00:07:07;;;;;;;10.45;5.22;;;;;;;14.15;76.48;102095.28;4969190;28;20101;-94
2022/06/12 00:09:33;;;;;;;8.93;4.93;;;;;;;14.20;76.53;102110.19;4974044;28;20027;-93
2022/06/12 00:11:59;;;;;;;11.45;4.93;;;;;;;14.11;77.22;102096.34;4978325;28;20041;-93
2022/06/12 00:14:24;;;;;;;11.48;5.22;;;;;;;14.10;76.99;102099.97;4975528;28;20035;-93
2022/06/12 00:16:52;;;;;;;9.70;5.60;;;;;;;14.02;77.55;102094.09;4972998;28;20038;-94
2022/06/12 00:19:18;;;;;;;11.13;5.53;;;;;;;14.02;78.06;102102.13;4973996;28;20062;-93
2022/06/12 00:21:43;;;;;;;11.90;5.80;;;;;;;13.89;78.36;102091.09;4975708;28;20083;-93
2022/06/12 00:24:12;;;;;;;12.18;5.72;;;;;;;13.95;78.02;102099.72;4969523;28;20031;-91
2022/06/12 00:26:44;;;;;;;14.85;5.68;;;;;;;13.93;78.11;102101.59;4982628;28;20087;-92
2022/06/12 00:29:15;;;;;;;13.55;6.20;;;;;;;13.92;78.26;102099.00;4991871;28;20026;-93
2022/06/12 00:31:45;;;;;;;11.60;6.07;;;;;;;13.85;78.43;102093.03;4974401;28;20069;-93
2022/06/12 00:34:13;;;;;;;13.50;6.10;;;;;;;13.78;78.36;102090.72;4975722;28;20055;-92
2022/06/12 00:36:38;;;;;;;14.10;6.22;;;;;;;13.73;79.16;102087.38;4970952;28;20027;-94
2022/06/12 00:39:05;;;;;;;11.82;5.80;;;;;;;13.70;79.14;102096.41;4973354;28;20114;-93
2022/06/12 00:41:32;;;;;;;11.07;6.03;;;;;;;13.58;79.24;102102.28;4975840;28;20027;-93
2022/06/12 00:43:57;;;;;;;12.02;5.55;;;;;;;13.47;79.96;102099.22;4976964;28;20105;-94
2022/06/12 00:46:42;;;;;;;10.07;5.60;;;;;;;13.50;79.77;102094.56;4974712;28;20069;-93
2022/06/12 00:49:11;;;;;;;10.35;5.88;;;;;;;13.42;80.90;102088.72;4976412;28;20053;-92
2022/06/12 00:51:38;;;;;;;12.55;5.88;;;;;;;13.44;80.78;102092.19;4975882;28;20042;-93
2022/06/12 00:54:04;;;;;;;10.27;5.70;;;;;;;13.41;80.58;102101.19;4983640;28;20019;-92
2022/06/12 00:56:35;;;;;;;11.35;5.35;;;;;;;13.40;80.47;102103.94;4971151;28;20038;-92
2022/06/12 00:59:10;;;;;;;12.77;6.18;;;;;;;13.38;80.49;102096.00;4974132;28;20306;-93
2022/06/12 01:01:42;;;;;;;12.35;6.20;;;;;;;13.33;81.07;102097.97;4975652;28;20034;-93
2022/06/12 01:06:55;;;;;;;10.05;5.70;;;;;;;13.28;81.52;102096.44;4972913;28;20323;-94
2022/06/12 01:09:28;;;;;;;10.23;5.90;;;;;;;13.28;81.47;102099.13;4975465;28;20550;-93
2022/06/12 01:11:55;;;;;;;14.23;6.25;;;;;;;13.24;80.96;102092.16;4976693;28;20042;-94
2022/06/12 01:14:27;;;;;;;11.07;6.72;;;;;;;13.25;81.07;102091.22;4981489;28;20035;-93
2022/06/12 01:16:56;;;;;;;10.52;6.22;;;;;;;13.18;80.85;102102.16;4969523;28;20042;-93
2022/06/12 01:19:30;;;;;;;10.57;6.15;;;;;;;13.13;81.28;102104.16;4967224;28;20038;-94
2022/06/12 01:22:23;;;;;;;11.65;6.65;;;;;;;13.14;81.03;102100.53;4965211;28;20046;-92
2022/06/12 01:25:06;;;;;;;12.95;6.60;;;;;;;13.10;81.07;102095.38;4971365;28;20038;-96
2022/06/12 01:27:49;;;;;;;10.55;5.88;;;;;;;13.06;81.85;102101.78;4970929;28;20045;-93
2022/06/12 01:30:19;;;;;;;10.68;6.30;;;;;;;12.96;81.89;102099.50;4971776;28;20046;-93
2022/06/12 01:33:21;;;;;;;11.18;6.35;;;;;;;12.97;80.74;102097.69;4974789;28;20035;-94
2022/06/12 01:35:59;;;;;;;12.40;6.50;;;;;;;12.86;82.55;102090.09;4885308;29;20043;-93
2022/06/12 01:38:46;;;;;;;11.25;6.15;;;;;;;12.83;81.80;102092.03;4889648;29;20040;-93
2022/06/12 01:41:27;;;;;;;10.18;6.72;;;;;;;12.82;81.87;102091.16;4873885;29;20077;-93
2022/06/12 01:44:18;;;;;;;12.98;6.63;;;;;;;12.78;81.78;102094.00;4877928;29;20132;-93
2022/06/12 01:47:11;;;;;;;10.63;6.53;;;;;;;12.75;82.42;102096.81;4876853;29;20595;-93
2022/06/12 01:49:43;;;;;;;12.43;6.43;;;;;;;12.72;82.39;102095.16;4878149;29;20039;-93
2022/06/12 01:52:31;;;;;;;11.20;6.75;;;;;;;12.66;82.40;102095.38;4880352;29;20140;-94
2022/06/12 01:55:13;;;;;;;11.18;6.05;;;;;;;12.57;82.82;102083.25;4879810;29;20045;-93
2022/06/12 01:57:43;;;;;;;11.57;6.60;;;;;;;12.50;83.46;102081.78;4880102;29;20058;-94
2022/06/12 02:00:15;;;;;;;13.00;6.68;;;;;;;12.47;83.80;102084.56;4882473;29;20083;-93
2022/06/12 02:02:59;;;;;;;9.13;6.57;;;;;;;12.45;83.43;102081.06;4875934;29;20048;-93
2022/06/12 02:05:43;;;;;;;13.82;6.82;;;;;;;12.42;83.95;102090.06;4874283;29;20112;-94
2022/06/12 02:08:17;;;;;;;;;;;;;;;12.48;80.98;102083.63;4878380;29;20052;-92
2022/06/12 02:10:52;;;;;;;12.43;6.85;;;;;;;12.39;84.55;102083.97;4886265;29;19924;-93
2022/06/12 02:13:27;;;;;;;13.52;7.22;;;;;;;12.38;84.12;102082.25;4992679;28;20563;-93
2022/06/12 02:16:03;;;;;;;12.65;7.07;;;;;;;12.28;84.02;102079.03;4964413;28;20036;-92
2022/06/12 02:18:44;;;;;;;13.60;7.68;;;;;;;12.28;84.26;102086.19;4975217;28;20069;-93
2022/06/12 02:21:21;;;;;;;14.27;7.13;;;;;;;12.27;84.69;102087.13;4973953;28;20580;-92
2022/06/12 02:24:01;;;;;;;13.80;6.78;;;;;;;12.21;84.20;102086.44;4963112;28;20086;-93
2022/06/12 02:26:40;;;;;;;15.38;7.03;;;;;;;12.23;84.45;102086.34;4969024;28;20523;-92
2022/06/12 02:29:14;;;;;;;10.85;6.75;;;;;;;12.20;84.77;102089.13;4972442;28;20027;-92
2022/06/12 02:31:44;;;;;;;13.52;6.90;;;;;;;12.14;84.84;102087.59;4975059;28;20034;-92
2022/06/12 02:34:15;;;;;;;12.25;7.38;;;;;;;12.09;85.35;102086.03;4971710;28;20027;-93
2022/06/12 02:36:45;;;;;;;12.35;7.00;;;;;;;12.04;85.66;102085.31;4970559;28;20023;-92
2022/06/12 02:39:18;;;;;;;10.40;6.78;;;;;;;12.02;86.24;102081.84;4965519;28;20025;-93
2022/06/12 02:41:48;;;;;;;12.25;6.50;;;;;;;12.02;86.88;102089.84;4961613;28;20020;-92
2022/06/12 02:44:20;;;;;;;11.20;6.63;;;;;;;11.99;86.94;102084.59;4975398;28;20054;-94
2022/06/12 02:47:15;;;;;;;12.70;6.28;;;;;;;11.99;85.55;102088.13;4968396;28;20038;-93
2022/06/12 02:49:44;;;;;;;12.55;6.68;;;;;;;11.96;86.56;102083.81;4973184;28;20045;-94
2022/06/12 02:52:21;;;;;;;12.32;6.78;;;;;;;11.89;86.42;102074.28;4974965;28;20395;-94
2022/06/12 02:55:07;;;;;;;9.30;7.25;;;;;;;11.87;86.30;102075.25;4971564;28;20074;-93
2022/06/12 02:57:40;;;;;;;13.88;7.82;;;;;;;11.82;87.08;102067.38;4970647;28;20137;-95
2022/06/12 03:00:29;;;;;;;11.38;7.28;;;;;;;11.84;87.02;102076.25;4959184;28;20496;-95
2022/06/12 03:03:18;;;;;;;8.88;6.63;;;;;;;11.83;86.11;102077.19;4974424;28;20035;-93
2022/06/12 03:05:48;;;;;;;11.60;6.72;;;;;;;11.73;86.24;102065.06;4975050;28;20027;-94
2022/06/12 03:08:18;;;;;;;11.98;6.20;;;;;;;11.69;86.29;102068.75;4967358;28;20076;-94
2022/06/12 03:10:48;;;;;;;13.27;6.80;;;;;;;11.68;86.48;102072.38;4973793;28;20043;-94
2022/06/12 03:13:15;;;;;;;9.93;5.80;;;;;;;11.64;86.62;102068.06;4973316;28;20048;-93
2022/06/12 03:15:43;;;;;;;10.90;6.15;;;;;;;11.64;86.70;102078.72;4985044;28;20027;-93
2022/06/12 03:18:13;;;;;;;9.30;6.20;;;;;;;11.59;86.47;102078.91;4978447;28;20113;-93
2022/06/12 03:21:05;;;;;;;11.63;6.05;;;;;;;11.59;85.98;102078.91;4980034;28;20042;-92
2022/06/12 03:23:55;;;;;;;13.75;6.35;;;;;;;11.64;86.43;102086.72;4970707;28;20057;-93
2022/06/12 03:26:40;;;;;;;10.40;6.43;;;;;;;11.65;86.34;102088.47;4979464;28;20022;-93
2022/06/12 03:29:27;;;;;;;9.32;5.75;;;;;;;11.63;86.43;102087.66;4962787;28;20448;-92
2022/06/12 03:32:14;;;;;;;12.10;6.47;;;;;;;11.61;86.37;102079.69;4979093;28;20066;-92
2022/06/12 03:35:09;;;;;;;11.43;6.60;;;;;;;11.57;86.19;102072.72;4971504;28;20109;-93
2022/06/12 03:37:53;;;;;;;13.48;6.95;;;;;;;11.61;86.73;102082.38;4868561;29;20076;-94
2022/06/12 03:41:17;;;;;;;14.18;6.57;;;;;;;11.64;86.08;102087.59;4882750;29;20051;-94
2022/06/12 03:43:52;;;;;;;12.95;7.03;;;;;;;11.60;86.83;102085.09;4864403;29;20037;-94
2022/06/12 03:46:43;;;;;;;10.15;7.13;;;;;;;11.65;86.00;102076.00;4857265;29;20048;-92
2022/06/12 03:49:11;;;;;;;16.00;6.93;;;;;;;11.67;86.48;102084.84;4859928;29;20050;-92
2022/06/12 03:52:14;;;;;;;11.52;6.28;;;;;;;11.71;86.00;102082.94;4875672;29;20236;-92
2022/06/12 03:55:10;;;;;;;12.32;6.88;;;;;;;11.66;85.89;102072.44;4874465;29;20053;-93
2022/06/12 03:57:52;;;;;;;14.85;6.10;;;;;;;11.77;86.17;102088.03;4857822;29;20102;-93
2022/06/12 04:00:37;;;;;;;9.80;5.93;;;;;;;11.80;85.34;102087.94;4848240;29;20192;-93
2022/06/12 04:03:15;;;;;;;12.35;6.15;;;;;;;11.78;85.51;102088.91;4858890;29;20064;-93
2022/06/12 04:05:44;;;;;;;10.52;5.63;;;;;;;11.82;85.58;102091.41;4859165;29;20030;-92
2022/06/12 04:08:22;;;;;;;12.88;6.05;;;;;;;11.84;84.58;102078.06;4861950;29;20062;-92
2022/06/12 04:10:49;;;;;;;12.35;5.65;;;;;;;11.87;84.38;102086.81;4860810;29;20079;-93
2022/06/12 04:13:19;;;;;;;10.35;5.47;;;;;;;11.90;84.05;102088.47;4874129;29;20302;-93
2022/06/12 04:15:54;;;;;;;14.32;5.40;;;;;;;11.92;83.48;102091.97;4974706;28;20027;-93
2022/06/12 04:18:19;;;;;;;12.57;5.70;;;;;;;11.96;83.24;102093.63;4975914;28;20051;-93
2022/06/12 04:20:54;;;;;;;10.98;5.40;;;;;;;11.98;83.14;102088.22;4976924;28;20038;-91
2022/06/12 04:23:47;;;;;;;10.82;5.53;;;;;;;12.01;82.48;102090.78;4976383;28;20039;-91
2022/06/12 04:26:31;;;;;;;10.48;4.75;;;;;;;12.04;82.62;102087.97;4976726;28;20035;-92
2022/06/12 04:29:19;;;;;;;11.50;5.45;;;;;;;12.08;82.04;102087.81;4968750;28;20358;-92
2022/06/12 04:31:48;;;;;;;13.00;5.32;;;;;;;12.12;82.00;102093.88;4964620;28;20439;-93
2022/06/12 04:34:16;;;;;;;10.98;4.93;;;;;;;12.14;81.57;102089.38;4973864;28;20031;-93
2022/06/12 04:36:45;;;;;;;11.75;4.65;;;;;;;12.15;81.08;102091.97;4982828;28;20042;-91
2022/06/12 04:39:16;;;;;;;14.18;5.07;;;;;;;12.21;81.12;102097.09;4980288;28;20030;-91
2022/06/12 04:41:43;;;;;;;10.02;4.70;;;;;;;12.26;80.71;102099.59;4977660;28;20046;-93
2022/06/12 04:44:09;;;;;;;7.47;4.72;;;;;;;12.21;80.44;102090.91;4971563;28;20059;-93
2022/06/12 04:46:36;;;;;;;10.10;4.65;;;;;;;12.33;80.02;102111.78;4977383;28;20027;-93
2022/06/12 04:49:03;;;;;;;9.75;4.50;;;;;;;12.35;79.35;102111.72;4972609;28;20023;-92
2022/06/12 04:51:30;;;;;;;11.38;4.78;;;;;;;12.41;79.33;102093.66;4974584;28;20551;-93
2022/06/12 04:53:55;;;;;;;13.07;4.55;;;;;;;12.43;78.75;102101.63;4973324;28;20030;-92
2022/06/12 04:56:25;;;;;;;10.80;4.72;;;;;;;12.49;79.36;102097.84;4972224;28;20041;-93
2022/06/12 04:58:52;;;;;;;12.23;5.00;;;;;;;12.57;79.23;102109.09;4975974;28;20066;-94
2022/06/12 05:01:18;;;;;;;11.65;4.78;;;;;;;12.64;78.49;102099.91;4970493;28;20609;-94
2022/06/12 05:03:44;;;;;;;11.13;4.55;;;;;;;12.76;78.11;102106.59;4975201;28;20037;-94
2022/06/12 05:06:13;;;;;;;10.23;4.40;;;;;;;12.82;78.01;102099.16;4977288;28;20027;-92
2022/06/12 05:08:39;;;;;;;13.13;4.50;;;;;;;12.88;77.95;102096.28;4973591;28;20027;-92
2022/06/12 05:11:04;;;;;;;10.02;4.40;;;;;;;12.94;76.52;102093.34;4976389;28;20042;-92
2022/06/12 05:13:30;;;;;;;11.85;4.45;;;;;;;13.02;76.30;102094.81;4974453;28;20432;-94
2022/06/12 05:15:55;;;;;;;10.93;4.88;;;;;;;13.02;76.29;102086.81;4984202;28;20062;-94
2022/06/12 05:18:21;;;;;;;8.55;4.10;;;;;;;13.13;75.94;102084.56;4969564;28;20185;-93
2022/06/12 05:20:47;;;;;;;9.95;4.20;;;;;;;13.19;75.55;102087.84;4977082;28;20035;-93
2022/06/12 05:23:13;;;;;;;14.65;4.85;;;;;;;13.29;75.95;102093.69;4968992;28;20015;-92
2022/06/12 05:25:40;;;;;;;11.88;4.45;;;;;;;13.33;74.24;102092.63;4976702;28;20082;-94
2022/06/12 05:28:05;;;;;;;10.98;4.45;;;;;;;13.39;73.58;102086.16;4971779;28;20046;-90
2022/06/12 05:30:33;;;;;;;11.38;4.15;;;;;;;13.47;74.88;102088.53;4970181;28;20035;-91
2022/06/12 05:32:59;;;;;;;9.13;4.50;;;;;;;13.53;74.18;102085.56;4966398;28;20506;-90
2022/06/12 05:35:26;;;;;;;10.35;4.25;;;;;;;13.61;74.23;102086.09;4973222;28;20034;-92
2022/06/12 05:37:52;;;;;;;8.32;4.00;;;;;;;13.69;74.00;102074.13;4981980;28;20045;-91
2022/06/12 05:40:22;;;;;;;11.65;4.13;;;;;;;13.81;73.81;102080.75;4983407;28;20117;-91
2022/06/12 05:42:48;;;;;;;12.00;4.10;;;;;;;13.90;73.69;102090.16;4974734;28;20050;-93
2022/06/12 05:45:16;;;;;;;12.20;4.70;;;;;;;14.04;73.81;102094.88;4968369;28;20031;-92
2022/06/12 05:48:08;;;;;;;11.85;4.43;;;;;;;14.18;74.35;102100.50;4974517;28;20031;-92
2022/06/12 05:50:36;;;;;;;14.63;4.22;;;;;;;14.32;73.62;102100.72;4976313;28;20039;-91
2022/06/12 05:53:03;;;;;;;12.07;4.22;;;;;;;14.46;73.14;102094.69;4971286;28;20039;-90
2022/06/12 05:55:28;;;;;;;14.80;5.63;;;;;;;14.59;73.51;102103.06;4969310;28;20393;-91
2022/06/12 05:57:54;;;;;;;14.45;5.10;;;;;;;14.72;72.35;102106.91;4973359;28;20043;-88
2022/06/12 06:00:25;;;;;;;11.15;5.32;;;;;;;14.87;73.26;102099.91;4964884;28;20030;-91
2022/06/12 06:02:50;;;;;;;15.95;5.30;;;;;;;15.08;72.97;102104.22;4969205;28;20204;-91
2022/06/12 06:05:16;;;;;;;18.88;5.00;;;;;;;15.27;72.63;102101.50;4967391;28;20484;-91
2022/06/12 06:07:41;;;;;;;14.25;5.88;;;;;;;15.44;71.17;102108.69;4957812;28;20016;-92
2022/06/12 06:10:12;;;;;;;13.18;5.30;;;;;;;15.59;71.11;102109.69;4971863;28;20030;-91
2022/06/12 06:12:37;;;;;;;15.15;4.95;;;;;;;15.78;71.01;102094.41;4969689;28;20105;-91
2022/06/12 06:15:03;;;;;;;13.13;5.03;;;;;;;16.00;70.48;102109.38;4962066;28;20070;-93
2022/06/12 06:17:28;;;;;;;15.52;5.80;;;;;;;16.11;70.03;102107.00;4954724;28;20469;-91
2022/06/12 06:19:54;;;;;;;12.32;5.10;;;;;;;16.27;69.52;102112.41;4964651;28;20038;-90
2022/06/12 06:22:20;;;;;;;16.10;5.72;;;;;;;16.39;69.59;102114.41;4971514;28;20035;-90
2022/06/12 06:24:46;;;;;;;18.23;6.10;;;;;;;16.52;68.77;102111.91;4955423;28;20507;-89
2022/06/12 06:27:13;;;;;;;20.48;5.82;;;;;;;16.57;69.52;102110.69;4957922;28;20019;-92
2022/06/12 06:29:39;;;;;;;17.02;6.25;;;;;;;16.71;68.91;102104.53;4969955;28;20377;-91
2022/06/12 06:32:07;;;;;;;17.33;5.43;;;;;;;16.85;68.44;102109.19;4965414;28;20050;-91
2022/06/12 06:34:33;;;;;;;18.50;6.43;;;;;;;17.02;69.57;102102.84;4965975;28;20019;-90
2022/06/12 06:36:59;;;;;;;17.25;6.63;;;;;;;17.23;67.97;102117.72;4973857;28;20038;-92
2022/06/12 06:39:24;;;;;;;18.45;6.40;;;;;;;17.38;67.96;102113.25;4973717;28;20515;-92
2022/06/12 06:41:50;;;;;;;20.45;6.40;;;;;;;17.54;68.25;102121.28;4970535;28;20465;-91
2022/06/12 06:46:59;;;;;;;20.45;6.45;;;;;;;17.83;66.87;102122.25;4965256;28;20224;-90
2022/06/12 06:49:24;;;;;;;23.40;6.53;;;;;;;17.96;66.79;102117.81;4968199;28;20031;-91
2022/06/12 06:51:50;;;;;;;22.67;6.22;;;;;;;18.01;66.07;102128.31;4968756;28;20063;-91
2022/06/12 06:54:17;;;;;;;15.35;5.97;;;;;;;18.13;66.09;102120.34;4971244;28;20030;-90
2022/06/12 06:56:43;;;;;;;22.33;6.90;;;;;;;18.22;65.18;102116.19;4975124;28;20034;-91
2022/06/12 06:59:08;;;;;;;19.02;6.50;;;;;;;18.38;65.24;102126.88;4976793;28;20038;-91
2022/06/12 07:01:34;;;;;;;20.40;6.18;;;;;;;18.59;64.78;102122.81;4976043;28;20336;-90
2022/06/12 07:04:01;;;;;;;18.30;5.97;;;;;;;18.82;63.85;102125.91;4976413;28;20027;-92
2022/06/12 07:06:26;;;;;;;17.67;6.30;;;;;;;18.97;63.76;102126.72;4974225;28;20029;-93
2022/06/12 07:08:53;;;;;;;22.13;6.60;;;;;;;18.87;62.48;102135.41;4979202;28;20388;-91
2022/06/12 07:11:18;;;;;;;15.40;5.30;;;;;;;18.90;63.11;102132.53;4971277;28;20039;-90
2022/06/12 07:13:44;;;;;;;15.90;6.05;;;;;;;19.02;63.69;102141.66;4975601;28;20058;-91
2022/06/12 07:16:09;;;;;;;13.15;5.40;;;;;;;19.05;61.50;102133.34;4973764;28;20381;-92
2022/06/12 07:18:35;;;;;;;17.80;6.43;;;;;;;19.08;60.94;102137.66;4973256;28;20125;-92
2022/06/12 07:21:03;;;;;;;20.98;6.40;;;;;;;19.31;61.56;102130.72;4984425;28;20082;-93
2022/06/12 07:23:30;;;;;;;16.35;5.30;;;;;;;19.53;61.20;102117.50;4982504;28;20030;-89
2022/06/12 07:25:59;;;;;;;15.27;5.13;;;;;;;19.67;58.53;102121.13;4979391;28;20026;-93
2022/06/12 07:28:26;;;;;;;19.60;6.07;;;;;;;19.75;58.04;102127.72;4986314;28;20118;-88
2022/06/12 07:30:52;;;;;;;26.92;6.22;;;;;;;20.10;58.15;102111.72;4973560;28;20046;-90
2022/06/12 07:33:17;;;;;;;22.45;7.25;;;;;;;20.60;56.18;102117.22;4978908;28;20023;-90
2022/06/12 07:35:44;;;;;;;16.00;5.95;;;;;;;21.01;54.51;102129.53;4976704;28;20133;-92
2022/06/12 07:38:12;;;;;;;11.40;4.75;;;;;;;21.31;54.16;102127.22;4978812;28;20031;-92
2022/06/12 07:40:43;;;;;;;17.83;5.03;;;;;;;21.70;54.04;102124.31;4976435;28;20042;-90
2022/06/12 07:43:08;;;;;;;13.82;4.85;;;;;;;22.19;52.37;102124.03;4967473;28;20032;-89
2022/06/12 07:45:40;;;;;;;28.05;10.73;;;;;;;22.36;52.18;102128.09;4975670;28;20030;-91
2022/06/12 07:48:06;;;;;;;14.00;5.18;;;;;;;22.73;49.15;102128.69;4974563;28;20511;-90
2022/06/12 07:50:32;;;;;;;13.52;4.68;;;;;;;23.11;48.93;102124.69;4973592;28;20388;-90
2022/06/12 07:52:58;;;;;;;13.32;4.00;;;;;;;23.52;48.21;102125.75;4974256;28;20050;-90
2022/06/12 07:55:24;;;;;;;13.27;4.47;;;;;;;23.90;45.80;102132.47;4972112;28;20038;-89
2022/06/12 07:57:50;;;;;;;18.63;4.35;;;;;;;24.29;45.24;102123.56;4970721;28;20077;-90
2022/06/12 08:00:16;;;;;;;19.08;4.40;;;;;;;24.23;44.77;102121.34;4974678;28;20113;-89
2022/06/12 08:02:43;;;;;;;11.07;3.65;;;;;;;24.30;43.73;102121.69;4965322;28;20035;-89
2022/06/12 08:05:09;;;;;;;11.32;3.95;;;;;;;24.76;44.85;102134.78;4971774;28;20046;-90
2022/06/12 08:07:34;;;;;;;11.85;3.85;;;;;;;25.08;42.51;102128.22;4975729;28;20484;-88
2022/06/12 08:10:01;;;;;;;12.35;3.90;;;;;;;25.24;41.61;102134.00;4980627;28;20035;-88
2022/06/12 08:12:26;;;;;;;13.90;3.97;;;;;;;25.76;41.39;102123.66;4973361;28;20022;-91
2022/06/12 08:14:53;;;;;;;14.20;4.38;;;;;;;26.25;37.97;102123.53;4973470;28;20404;-88
2022/06/12 08:17:19;;;;;;;13.32;5.90;;;;;;;26.61;37.92;102130.03;4986485;28;20058;-89
2022/06/12 08:22:28;;;;;;;8.82;3.40;;;;;;;27.18;37.35;102122.50;4982856;28;20082;-91
2022/06/12 08:24:53;;;;;;;14.13;3.88;;;;;;;27.16;37.35;102121.78;4978255;28;20054;-89
2022/06/12 08:27:18;;;;;;;9.93;3.22;;;;;;;27.12;36.71;102123.09;4972671;28;20090;-92
2022/06/12 08:29:44;;;;;;;12.23;3.17;;;;;;;26.88;37.11;102131.88;4975266;28;20027;-91
2022/06/12 08:32:16;;;;;;;10.02;3.30;;;;;;;27.29;38.09;102130.44;4973552;28;20030;-89
2022/06/12 08:34:48;;;;;;;10.20;2.95;;;;;;;27.77;36.39;102117.38;4971926;28;20057;-90
2022/06/12 08:37:22;;;;;;;15.10;3.72;;;;;;;27.68;35.69;102135.59;4994678;28;20063;-89
2022/06/12 08:39:48;;;;;;;13.32;4.13;;;;;;;26.99;36.38;102126.19;4972896;28;20030;-89
2022/06/12 08:42:26;;;;;;;14.30;4.00;;;;;;;26.41;38.79;102133.81;4969179;28;20039;-88
2022/06/12 08:45:10;;;;;;;7.28;3.08;;;;;;;26.07;39.46;102128.91;4972946;28;20039;-90
2022/06/12 08:47:44;;;;;;;9.90;2.97;;;;;;;25.98;38.95;102125.22;4962891;28;20082;-92
2022/06/12 08:50:23;;;;;;;10.65;3.47;;;;;;;26.49;38.67;102115.69;4976215;28;20035;-88
2022/06/12 08:52:58;;;;;;;11.63;3.65;;;;;;;26.51;37.72;102121.88;4970414;28;20074;-91
2022/06/12 08:55:45;;;;;;;12.27;3.60;;;;;;;27.01;37.02;102123.31;4974439;28;20046;-92
2022/06/12 08:58:29;;;;;;;11.85;3.78;;;;;;;27.92;36.30;102112.16;4978292;28;21964;-91
2022/06/12 09:00:55;;;;;;;10.90;4.05;;;;;;;28.35;34.43;102110.38;4983082;28;20035;-90
2022/06/12 09:03:24;;;;;;;13.07;3.78;;;;;;;28.38;33.42;102110.06;4977316;28;20026;-92
2022/06/12 09:06:12;;;;;;;7.25;2.78;;;;;;;28.25;32.40;102110.47;4976327;28;20023;-91
2022/06/12 09:09:02;;;;;;;11.32;3.70;;;;;;;28.70;33.15;102115.66;4965812;28;20085;-89
2022/06/12 09:11:37;;;;;;;7.63;2.97;;;;;;;29.15;32.13;102103.47;4974795;28;20061;-90
2022/06/12 09:14:19;;;;;;;28.02;6.03;;;;;;;29.38;32.03;102109.13;4975261;28;20101;-88
2022/06/12 09:16:56;;;;;;;23.05;7.25;;;;;;;28.53;33.06;102113.91;4969161;28;20027;-89
2022/06/12 09:19:34;;;;;;;28.88;16.73;;;;;;;27.93;32.45;102106.56;4974608;28;20030;-90
2022/06/12 09:22:12;;;;;;;7.05;2.85;;;;;;;27.29;34.64;102115.91;4972544;28;20038;-90
2022/06/12 09:24:38;;;;;;;6.68;2.22;;;;;;;27.17;32.96;102108.97;4975622;28;20022;-91
2022/06/12 09:27:23;;;;;;;9.68;2.50;;;;;;;28.08;32.31;102115.00;4976770;28;20039;-91
2022/06/12 09:30:04;;;;;;;9.48;3.25;;;;;;;28.89;31.19;102106.31;4974374;28;20037;-90
2022/06/12 09:32:56;;;;;;;10.93;5.22;;;;;;;29.37;31.10;102106.56;4973476;28;20031;-90
2022/06/12 09:35:56;;;;;;;11.35;3.40;;;;;;;30.72;30.58;102112.13;4947968;28;20046;-92
2022/06/12 09:38:52;;;;;;;8.57;2.38;;;;;;;31.05;26.91;102109.19;4913554;29;20048;-92
2022/06/12 09:41:20;;;;;;;7.35;2.42;;;;;;;30.92;27.15;102108.94;4911946;29;20043;-91
2022/06/12 09:43:53;;;;;;;7.18;2.45;;;;;;;30.91;29.30;102101.72;4911802;29;20036;-91
2022/06/12 09:46:29;;;;;;;6.88;1.88;;;;;;;31.19;27.00;102113.91;4909012;29;20658;-91
2022/06/12 09:49:02;;;;;;;8.30;2.38;;;;;;;31.11;24.91;102113.97;4907008;29;20039;-91
2022/06/12 09:52:04;;;;;;;7.97;2.15;;;;;;;31.05;26.99;102116.56;4910649;29;20494;-92
2022/06/12 09:54:57;;;;;;;6.78;3.00;;;;;;;31.41;27.66;102106.72;4911385;29;20043;-92
2022/06/12 09:57:23;;;;;;;6.63;2.42;;;;;;;31.81;25.35;102110.09;4901073;29;20044;-95
2022/06/12 09:59:58;;;;;;;6.97;2.60;;;;;;;31.96;25.96;102104.66;4903131;29;20493;-93
2022/06/12 10:03:08;;;;;;;7.38;2.78;;;;;;;32.48;26.42;102100.94;4902143;29;20099;-94
2022/06/12 10:06:00;;;;;;;10.02;3.13;;;;;;;33.28;27.10;102102.75;4892090;29;20048;-94
2022/06/12 10:08:49;;;;;;;11.70;3.35;;;;;;;34.07;23.71;102094.28;4911742;29;20079;-91
2022/06/12 10:11:40;;;;;;;9.07;3.03;;;;;;;35.41;25.02;102102.00;4911738;29;20032;-90
2022/06/12 10:14:11;;;;;;;7.15;2.97;;;;;;;35.88;22.32;102100.91;4911726;29;20055;-91
2022/06/12 10:16:53;;;;;;;8.80;3.28;;;;;;;35.66;22.67;102096.69;4972245;28;20129;-87
2022/06/12 10:19:32;;;;;;;6.45;2.45;;;;;;;34.49;23.77;102091.53;4971188;28;20073;-88
2022/06/12 10:22:10;;;;;;;4.72;2.10;;;;;;;32.26;25.67;102096.41;4961995;28;20058;-93
2022/06/12 10:24:36;;;;;;;7.13;3.60;;;;;;;30.96;27.01;102099.28;4969176;28;20038;-87
2022/06/12 10:27:08;;;;;;;9.57;3.53;;;;;;;29.77;28.57;102089.25;4970832;28;20062;-89
2022/06/12 10:29:44;;;;;;;7.53;2.90;;;;;;;28.55;30.46;102089.91;4973851;28;20034;-86
2022/06/12 10:32:16;;;;;;;6.50;2.67;;;;;;;27.08;32.09;102092.44;4974359;28;20022;-88
2022/06/12 10:34:42;;;;;;;9.95;3.63;;;;;;;28.37;31.41;102081.81;4977645;28;20023;-89
2022/06/12 10:37:22;;;;;;;7.05;2.80;;;;;;;31.02;27.12;102084.81;4973226;28;20030;-88
2022/06/12 10:40:05;;;;;;;6.93;2.25;;;;;;;32.79;25.31;102081.41;4972117;28;20035;-88
2022/06/12 10:42:40;;;;;;;7.38;2.50;;;;;;;32.41;23.87;102083.50;4955032;28;20290;-94
2022/06/12 10:45:20;;;;;;;5.88;2.65;;;;;;;30.15;26.86;102068.44;4969557;28;20038;-91
2022/06/12 10:47:47;;;;;;;7.07;2.13;;;;;;;28.86;27.84;102081.13;4977294;28;20389;-94
2022/06/12 10:50:15;;;;;;;7.00;1.98;;;;;;;28.97;28.18;102083.56;4975804;28;20033;-91
2022/06/12 10:52:58;;;;;;;5.88;2.30;;;;;;;30.17;28.07;102074.56;4957346;28;20054;-92
2022/06/12 10:55:44;;;;;;;8.65;2.88;;;;;;;29.07;27.95;102077.94;4974114;28;20420;-92
2022/06/12 10:58:27;;;;;;;7.85;2.85;;;;;;;28.16;30.24;102079.47;4962388;28;20034;-92
2022/06/12 11:00:56;;;;;;;7.67;3.30;;;;;;;27.99;30.42;102067.59;4958421;28;20414;-92
2022/06/12 11:03:52;;;;;;;7.55;3.00;;;;;;;27.80;31.43;102071.41;4973075;28;20363;-91
2022/06/12 11:07:02;;;;;;;8.38;2.90;;;;;;;27.37;32.38;102085.91;4961227;28;20069;-90
2022/06/12 11:09:48;;;;;;;8.98;3.38;;;;;;;27.39;32.68;102064.75;4975514;28;20006;-93
2022/06/12 11:12:27;;;;;;;9.40;3.30;;;;;;;27.48;32.52;102072.00;4972354;28;20497;-89
2022/06/12 11:15:31;;;;;;;10.63;3.47;;;;;;;27.45;32.32;102069.59;4969619;28;20074;-92
2022/06/12 11:18:14;;;;;;;11.02;3.83;;;;;;;26.65;34.69;102075.97;4978062;28;20064;-91
2022/06/12 11:20:39;;;;;;;8.80;3.22;;;;;;;26.35;35.05;102080.69;4971430;28;20031;-92
2022/06/12 11:23:16;;;;;;;7.55;3.28;;;;;;;26.67;34.62;102074.81;4974868;28;20019;-93
2022/06/12 11:26:10;;;;;;;8.63;3.65;;;;;;;26.33;34.82;102075.41;4973404;28;20034;-90
2022/06/12 11:28:57;;;;;;;11.15;3.90;;;;;;;26.51;35.23;102080.06;4960479;28;20098;-91
2022/06/12 11:31:44;;;;;;;10.85;4.32;;;;;;;28.89;31.71;102067.09;4972343;28;20035;-90
2022/06/12 11:34:16;;;;;;;10.05;3.90;;;;;;;29.41;29.66;102061.31;4971650;28;20037;-91
2022/06/12 11:36:53;;;;;;;8.98;3.47;;;;;;;27.70;32.39;102064.28;4980754;28;20023;-91
2022/06/12 11:39:42;;;;;;;8.30;3.30;;;;;;;26.42;34.48;102070.91;4985591;28;20038;-91
2022/06/12 11:42:37;;;;;;;8.13;3.20;;;;;;;25.33;36.70;102065.03;4969062;28;20491;-91
2022/06/12 11:45:10;;;;;;;7.55;3.30;;;;;;;25.41;36.94;102052.53;4969244;28;20037;-91
2022/06/12 11:48:02;;;;;;;9.25;3.38;;;;;;;27.17;34.18;102055.19;4976102;28;20197;-90
2022/06/12 11:50:43;;;;;;;10.40;3.20;;;;;;;29.34;30.57;102030.13;4971173;28;20129;-91
2022/06/12 11:53:30;;;;;;;9.35;4.20;;;;;;;29.02;30.32;102037.34;4976999;28;20061;-90
2022/06/12 11:56:29;;;;;;;9.98;3.80;;;;;;;28.02;32.06;102037.16;4965766;28;20078;-90
2022/06/12 11:59:08;;;;;;;11.32;3.75;;;;;;;27.14;32.66;102033.63;4973009;28;20211;-90
2022/06/12 12:01:44;;;;;;;11.40;4.22;;;;;;;26.45;34.27;102037.84;4967866;28;20027;-91